sensor_id;sensor_type;location;lat;lon;timestamp;P1;durP1;ratioP1;P2;durP2;ratioP2
41677;SDS011;27364;49.026;8.712;2022-08-20T00:00:16;4.22;;;1.45;;
41677;SDS011;27364;49.026;8.712;2022-08-20T00:02:45;1.90;;;1.23;;
41677;SDS011;27364;49.026;8.712;2022-08-20T00:05:13;1.63;;;1.20;;
41677;SDS011;27364;49.026;8.712;2022-08-20T00:07:39;1.65;;;1.08;;
41677;SDS011;27364;49.026;8.712;2022-08-20T00:10:05;2.70;;;1.20;;
41677;SDS011;27364;49.026;8.712;2022-08-20T00:12:32;1.97;;;1.20;;
41677;SDS011;27364;49.026;8.712;2022-08-20T00:14:59;2.63;;;1.30;;
41677;SDS011;27364;49.026;8.712;2022-08-20T00:17:24;2.72;;;1.20;;
41677;SDS011;27364;49.026;8.712;2022-08-20T00:19:50;3.13;;;1.20;;
41677;SDS011;27364;49.026;8.712;2022-08-20T00:22:15;2.45;;;1.35;;
41677;SDS011;27364;49.026;8.712;2022-08-20T00:24:41;1.77;;;1.23;;
41677;SDS011;27364;49.026;8.712;2022-08-20T00:27:07;4.32;;;1.50;;
41677;SDS011;27364;49.026;8.712;2022-08-20T00:29:32;1.75;;;1.20;;
41677;SDS011;27364;49.026;8.712;2022-08-20T00:31:59;1.77;;;1.30;;
41677;SDS011;27364;49.026;8.712;2022-08-20T00:34:25;2.08;;;1.30;;
41677;SDS011;27364;49.026;8.712;2022-08-20T00:36:51;1.90;;;1.27;;
41677;SDS011;27364;49.026;8.712;2022-08-20T00:39:16;5.57;;;1.20;;
41677;SDS011;27364;49.026;8.712;2022-08-20T00:41:42;1.77;;;1.20;;
41677;SDS011;27364;49.026;8.712;2022-08-20T00:44:17;1.80;;;1.25;;
41677;SDS011;27364;49.026;8.712;2022-08-20T00:46:46;1.58;;;1.30;;
41677;SDS011;27364;49.026;8.712;2022-08-20T00:49:16;2.72;;;1.30;;
41677;SDS011;27364;49.026;8.712;2022-08-20T00:51:47;3.35;;;1.30;;
41677;SDS011;27364;49.026;8.712;2022-08-20T00:56:54;2.00;;;1.20;;
41677;SDS011;27364;49.026;8.712;2022-08-20T00:59:23;1.55;;;1.17;;
41677;SDS011;27364;49.026;8.712;2022-08-20T01:01:51;2.30;;;1.23;;
41677;SDS011;27364;49.026;8.712;2022-08-20T01:04:18;2.97;;;1.50;;
41677;SDS011;27364;49.026;8.712;2022-08-20T01:06:43;2.28;;;1.17;;
41677;SDS011;27364;49.026;8.712;2022-08-20T01:09:10;2.28;;;1.42;;
41677;SDS011;27364;49.026;8.712;2022-08-20T01:11:36;3.08;;;1.33;;
41677;SDS011;27364;49.026;8.712;2022-08-20T01:14:06;1.85;;;1.20;;
41677;SDS011;27364;49.026;8.712;2022-08-20T01:16:56;2.13;;;1.30;;
41677;SDS011;27364;49.026;8.712;2022-08-20T01:19:27;1.98;;;1.38;;
41677;SDS011;27364;49.026;8.712;2022-08-20T01:21:57;3.65;;;1.50;;
41677;SDS011;27364;49.026;8.712;2022-08-20T01:24:31;2.40;;;1.50;;
41677;SDS011;27364;49.026;8.712;2022-08-20T01:27:02;3.08;;;1.50;;
41677;SDS011;27364;49.026;8.712;2022-08-20T01:32:00;2.55;;;1.52;;
41677;SDS011;27364;49.026;8.712;2022-08-20T01:34:26;3.65;;;1.58;;
41677;SDS011;27364;49.026;8.712;2022-08-20T01:36:53;2.25;;;1.50;;
41677;SDS011;27364;49.026;8.712;2022-08-20T01:39:22;3.80;;;1.48;;
41677;SDS011;27364;49.026;8.712;2022-08-20T01:41:59;2.50;;;1.67;;
41677;SDS011;27364;49.026;8.712;2022-08-20T01:44:30;2.22;;;1.40;;
41677;SDS011;27364;49.026;8.712;2022-08-20T01:46:56;2.92;;;1.55;;
41677;SDS011;27364;49.026;8.712;2022-08-20T01:49:47;2.08;;;1.40;;
41677;SDS011;27364;49.026;8.712;2022-08-20T01:52:21;2.92;;;1.45;;
41677;SDS011;27364;49.026;8.712;2022-08-20T01:54:57;3.05;;;1.60;;
41677;SDS011;27364;49.026;8.712;2022-08-20T01:57:24;5.32;;;1.90;;
41677;SDS011;27364;49.026;8.712;2022-08-20T01:59:50;2.25;;;1.50;;
41677;SDS011;27364;49.026;8.712;2022-08-20T02:02:17;2.50;;;1.50;;
41677;SDS011;27364;49.026;8.712;2022-08-20T02:04:43;2.63;;;1.55;;
41677;SDS011;27364;49.026;8.712;2022-08-20T02:07:13;2.13;;;1.48;;
41677;SDS011;27364;49.026;8.712;2022-08-20T02:09:42;2.63;;;1.70;;
41677;SDS011;27364;49.026;8.712;2022-08-20T02:12:09;3.38;;;1.52;;
41677;SDS011;27364;49.026;8.712;2022-08-20T02:14:46;2.33;;;1.55;;
41677;SDS011;27364;49.026;8.712;2022-08-20T02:17:15;1.90;;;1.40;;
41677;SDS011;27364;49.026;8.712;2022-08-20T02:19:44;5.43;;;1.60;;
41677;SDS011;27364;49.026;8.712;2022-08-20T02:22:19;2.75;;;1.75;;
41677;SDS011;27364;49.026;8.712;2022-08-20T02:24:52;2.33;;;1.42;;
41677;SDS011;27364;49.026;8.712;2022-08-20T02:27:18;3.35;;;1.77;;
41677;SDS011;27364;49.026;8.712;2022-08-20T02:29:44;3.13;;;1.67;;
41677;SDS011;27364;49.026;8.712;2022-08-20T02:32:10;2.50;;;1.52;;
41677;SDS011;27364;49.026;8.712;2022-08-20T02:34:36;2.80;;;1.70;;
41677;SDS011;27364;49.026;8.712;2022-08-20T02:37:03;3.03;;;1.70;;
41677;SDS011;27364;49.026;8.712;2022-08-20T02:39:29;2.28;;;1.65;;
41677;SDS011;27364;49.026;8.712;2022-08-20T02:41:55;2.40;;;1.70;;
41677;SDS011;27364;49.026;8.712;2022-08-20T02:44:21;2.92;;;1.88;;
41677;SDS011;27364;49.026;8.712;2022-08-20T02:46:47;4.15;;;1.80;;
41677;SDS011;27364;49.026;8.712;2022-08-20T02:51:41;2.80;;;1.77;;
41677;SDS011;27364;49.026;8.712;2022-08-20T02:54:08;2.85;;;1.90;;
41677;SDS011;27364;49.026;8.712;2022-08-20T02:56:34;3.05;;;1.77;;
41677;SDS011;27364;49.026;8.712;2022-08-20T02:58:59;6.10;;;2.58;;
41677;SDS011;27364;49.026;8.712;2022-08-20T03:01:25;3.15;;;1.80;;
41677;SDS011;27364;49.026;8.712;2022-08-20T03:03:51;3.10;;;2.20;;
41677;SDS011;27364;49.026;8.712;2022-08-20T03:06:17;2.80;;;1.83;;
41677;SDS011;27364;49.026;8.712;2022-08-20T03:08:42;3.53;;;2.08;;
41677;SDS011;27364;49.026;8.712;2022-08-20T03:11:08;3.53;;;2.20;;
41677;SDS011;27364;49.026;8.712;2022-08-20T03:13:34;5.30;;;2.00;;
41677;SDS011;27364;49.026;8.712;2022-08-20T03:16:00;2.92;;;1.95;;
41677;SDS011;27364;49.026;8.712;2022-08-20T03:18:31;4.53;;;1.90;;
41677;SDS011;27364;49.026;8.712;2022-08-20T03:21:00;3.00;;;1.80;;
41677;SDS011;27364;49.026;8.712;2022-08-20T03:23:27;2.70;;;1.88;;
41677;SDS011;27364;49.026;8.712;2022-08-20T03:25:52;2.95;;;1.92;;
41677;SDS011;27364;49.026;8.712;2022-08-20T03:28:18;4.68;;;1.85;;
41677;SDS011;27364;49.026;8.712;2022-08-20T03:30:44;2.50;;;1.90;;
41677;SDS011;27364;49.026;8.712;2022-08-20T03:33:10;3.33;;;1.90;;
41677;SDS011;27364;49.026;8.712;2022-08-20T03:35:36;3.03;;;2.03;;
41677;SDS011;27364;49.026;8.712;2022-08-20T03:38:07;3.13;;;2.17;;
41677;SDS011;27364;49.026;8.712;2022-08-20T03:40:34;4.45;;;2.20;;
41677;SDS011;27364;49.026;8.712;2022-08-20T03:45:28;4.88;;;2.33;;
41677;SDS011;27364;49.026;8.712;2022-08-20T03:47:54;3.15;;;2.15;;
41677;SDS011;27364;49.026;8.712;2022-08-20T03:50:21;3.22;;;2.20;;
41677;SDS011;27364;49.026;8.712;2022-08-20T03:52:50;2.92;;;2.00;;
41677;SDS011;27364;49.026;8.712;2022-08-20T03:55:17;4.18;;;2.20;;
41677;SDS011;27364;49.026;8.712;2022-08-20T03:57:48;3.40;;;2.30;;
41677;SDS011;27364;49.026;8.712;2022-08-20T04:00:18;3.72;;;2.22;;
41677;SDS011;27364;49.026;8.712;2022-08-20T04:02:49;3.70;;;2.15;;
41677;SDS011;27364;49.026;8.712;2022-08-20T04:05:15;5.50;;;2.47;;
41677;SDS011;27364;49.026;8.712;2022-08-20T04:07:41;3.45;;;2.30;;
41677;SDS011;27364;49.026;8.712;2022-08-20T04:12:35;4.60;;;2.40;;
41677;SDS011;27364;49.026;8.712;2022-08-20T04:15:14;3.47;;;2.20;;
41677;SDS011;27364;49.026;8.712;2022-08-20T04:17:42;3.55;;;2.38;;
41677;SDS011;27364;49.026;8.712;2022-08-20T04:20:10;3.17;;;2.22;;
41677;SDS011;27364;49.026;8.712;2022-08-20T04:22:38;3.88;;;2.58;;
41677;SDS011;27364;49.026;8.712;2022-08-20T04:25:04;4.18;;;2.60;;
41677;SDS011;27364;49.026;8.712;2022-08-20T04:27:32;8.32;;;2.92;;
41677;SDS011;27364;49.026;8.712;2022-08-20T04:30:00;7.43;;;3.30;;
41677;SDS011;27364;49.026;8.712;2022-08-20T04:32:29;4.50;;;3.08;;
41677;SDS011;27364;49.026;8.712;2022-08-20T04:34:54;5.10;;;3.22;;
41677;SDS011;27364;49.026;8.712;2022-08-20T04:37:20;5.35;;;3.15;;
41677;SDS011;27364;49.026;8.712;2022-08-20T04:39:47;5.30;;;3.03;;
41677;SDS011;27364;49.026;8.712;2022-08-20T04:42:36;4.20;;;2.87;;
41677;SDS011;27364;49.026;8.712;2022-08-20T04:45:06;4.47;;;2.97;;
41677;SDS011;27364;49.026;8.712;2022-08-20T04:47:33;4.40;;;3.33;;
41677;SDS011;27364;49.026;8.712;2022-08-20T04:49:59;5.35;;;3.38;;
41677;SDS011;27364;49.026;8.712;2022-08-20T04:52:25;4.35;;;2.90;;
41677;SDS011;27364;49.026;8.712;2022-08-20T04:54:52;5.22;;;2.70;;
41677;SDS011;27364;49.026;8.712;2022-08-20T04:57:20;4.13;;;2.75;;
41677;SDS011;27364;49.026;8.712;2022-08-20T04:59:46;9.52;;;3.40;;
41677;SDS011;27364;49.026;8.712;2022-08-20T05:02:11;4.90;;;3.03;;
41677;SDS011;27364;49.026;8.712;2022-08-20T05:04:37;6.35;;;3.38;;
41677;SDS011;27364;49.026;8.712;2022-08-20T05:07:02;5.65;;;3.42;;
41677;SDS011;27364;49.026;8.712;2022-08-20T05:09:28;5.28;;;3.00;;
41677;SDS011;27364;49.026;8.712;2022-08-20T05:11:56;5.15;;;3.53;;
41677;SDS011;27364;49.026;8.712;2022-08-20T05:14:21;5.15;;;3.33;;
41677;SDS011;27364;49.026;8.712;2022-08-20T05:16:47;4.25;;;2.97;;
41677;SDS011;27364;49.026;8.712;2022-08-20T05:19:14;5.10;;;3.30;;
41677;SDS011;27364;49.026;8.712;2022-08-20T05:21:40;4.88;;;3.35;;
41677;SDS011;27364;49.026;8.712;2022-08-20T05:24:06;4.57;;;3.20;;
41677;SDS011;27364;49.026;8.712;2022-08-20T05:26:32;3.90;;;3.08;;
41677;SDS011;27364;49.026;8.712;2022-08-20T05:28:57;4.15;;;3.10;;
41677;SDS011;27364;49.026;8.712;2022-08-20T05:31:28;4.57;;;3.10;;
41677;SDS011;27364;49.026;8.712;2022-08-20T05:33:54;4.65;;;3.30;;
41677;SDS011;27364;49.026;8.712;2022-08-20T05:36:21;4.78;;;3.42;;
41677;SDS011;27364;49.026;8.712;2022-08-20T05:38:47;5.25;;;3.55;;
41677;SDS011;27364;49.026;8.712;2022-08-20T05:41:12;5.07;;;3.15;;
41677;SDS011;27364;49.026;8.712;2022-08-20T05:43:38;8.85;;;3.53;;
41677;SDS011;27364;49.026;8.712;2022-08-20T05:46:04;4.68;;;3.67;;
41677;SDS011;27364;49.026;8.712;2022-08-20T05:48:30;4.53;;;3.45;;
41677;SDS011;27364;49.026;8.712;2022-08-20T05:50:59;6.75;;;3.50;;
41677;SDS011;27364;49.026;8.712;2022-08-20T05:53:25;4.82;;;3.30;;
41677;SDS011;27364;49.026;8.712;2022-08-20T05:55:51;4.68;;;3.67;;
41677;SDS011;27364;49.026;8.712;2022-08-20T05:58:21;4.93;;;3.28;;
41677;SDS011;27364;49.026;8.712;2022-08-20T06:00:49;6.28;;;3.40;;
41677;SDS011;27364;49.026;8.712;2022-08-20T06:03:16;5.05;;;3.50;;
41677;SDS011;27364;49.026;8.712;2022-08-20T06:06:00;5.07;;;3.47;;
41677;SDS011;27364;49.026;8.712;2022-08-20T06:08:26;4.72;;;3.50;;
41677;SDS011;27364;49.026;8.712;2022-08-20T06:10:52;4.88;;;3.40;;
41677;SDS011;27364;49.026;8.712;2022-08-20T06:13:18;5.05;;;3.22;;
41677;SDS011;27364;49.026;8.712;2022-08-20T06:15:44;4.70;;;3.47;;
41677;SDS011;27364;49.026;8.712;2022-08-20T06:18:09;4.93;;;3.15;;
41677;SDS011;27364;49.026;8.712;2022-08-20T06:20:35;5.32;;;3.65;;
41677;SDS011;27364;49.026;8.712;2022-08-20T06:23:02;5.33;;;3.37;;
41677;SDS011;27364;49.026;8.712;2022-08-20T06:25:29;5.32;;;3.30;;
41677;SDS011;27364;49.026;8.712;2022-08-20T06:27:54;4.97;;;3.40;;
41677;SDS011;27364;49.026;8.712;2022-08-20T06:30:20;3.97;;;3.10;;
41677;SDS011;27364;49.026;8.712;2022-08-20T06:32:46;4.85;;;3.22;;
41677;SDS011;27364;49.026;8.712;2022-08-20T06:35:11;5.85;;;3.30;;
41677;SDS011;27364;49.026;8.712;2022-08-20T06:37:38;4.17;;;3.10;;
41677;SDS011;27364;49.026;8.712;2022-08-20T06:40:08;6.93;;;3.47;;
41677;SDS011;27364;49.026;8.712;2022-08-20T06:42:36;6.15;;;3.05;;
41677;SDS011;27364;49.026;8.712;2022-08-20T06:45:05;5.65;;;3.35;;
41677;SDS011;27364;49.026;8.712;2022-08-20T06:47:31;4.75;;;2.92;;
41677;SDS011;27364;49.026;8.712;2022-08-20T06:49:58;8.47;;;3.43;;
41677;SDS011;27364;49.026;8.712;2022-08-20T06:52:23;4.50;;;3.17;;
41677;SDS011;27364;49.026;8.712;2022-08-20T06:54:49;4.10;;;3.17;;
41677;SDS011;27364;49.026;8.712;2022-08-20T06:57:14;5.10;;;3.47;;
41677;SDS011;27364;49.026;8.712;2022-08-20T06:59:41;4.28;;;2.90;;
41677;SDS011;27364;49.026;8.712;2022-08-20T07:02:06;4.60;;;3.30;;
41677;SDS011;27364;49.026;8.712;2022-08-20T07:04:32;4.93;;;3.42;;
41677;SDS011;27364;49.026;8.712;2022-08-20T07:06:58;4.32;;;3.30;;
41677;SDS011;27364;49.026;8.712;2022-08-20T07:09:24;4.70;;;2.90;;
41677;SDS011;27364;49.026;8.712;2022-08-20T07:11:51;4.75;;;2.92;;
41677;SDS011;27364;49.026;8.712;2022-08-20T07:14:17;5.07;;;3.28;;
41677;SDS011;27364;49.026;8.712;2022-08-20T07:16:43;5.82;;;2.95;;
41677;SDS011;27364;49.026;8.712;2022-08-20T07:19:11;6.20;;;4.50;;
41677;SDS011;27364;49.026;8.712;2022-08-20T07:21:37;5.80;;;3.88;;
41677;SDS011;27364;49.026;8.712;2022-08-20T07:24:03;5.00;;;3.28;;
41677;SDS011;27364;49.026;8.712;2022-08-20T07:26:29;5.18;;;3.30;;
41677;SDS011;27364;49.026;8.712;2022-08-20T07:28:55;4.32;;;3.05;;
41677;SDS011;27364;49.026;8.712;2022-08-20T07:31:20;4.40;;;3.25;;
41677;SDS011;27364;49.026;8.712;2022-08-20T07:34:04;4.28;;;3.00;;
41677;SDS011;27364;49.026;8.712;2022-08-20T07:36:30;4.65;;;2.90;;
41677;SDS011;27364;49.026;8.712;2022-08-20T07:38:56;3.90;;;2.75;;
41677;SDS011;27364;49.026;8.712;2022-08-20T07:41:22;4.10;;;2.70;;
41677;SDS011;27364;49.026;8.712;2022-08-20T07:43:48;4.00;;;2.60;;
41677;SDS011;27364;49.026;8.712;2022-08-20T07:46:14;4.50;;;2.80;;
41677;SDS011;27364;49.026;8.712;2022-08-20T07:48:43;4.32;;;2.75;;
41677;SDS011;27364;49.026;8.712;2022-08-20T07:51:14;4.10;;;2.60;;
41677;SDS011;27364;49.026;8.712;2022-08-20T07:53:41;4.07;;;2.83;;
41677;SDS011;27364;49.026;8.712;2022-08-20T07:56:09;4.93;;;2.90;;
41677;SDS011;27364;49.026;8.712;2022-08-20T07:58:37;4.03;;;2.58;;
41677;SDS011;27364;49.026;8.712;2022-08-20T08:01:08;4.15;;;3.05;;
41677;SDS011;27364;49.026;8.712;2022-08-20T08:03:35;4.80;;;2.97;;
41677;SDS011;27364;49.026;8.712;2022-08-20T08:06:01;3.80;;;2.53;;
41677;SDS011;27364;49.026;8.712;2022-08-20T08:08:27;4.57;;;2.53;;
41677;SDS011;27364;49.026;8.712;2022-08-20T08:10:57;3.42;;;2.67;;
41677;SDS011;27364;49.026;8.712;2022-08-20T08:13:24;4.60;;;2.90;;
41677;SDS011;27364;49.026;8.712;2022-08-20T08:15:52;4.20;;;2.53;;
41677;SDS011;27364;49.026;8.712;2022-08-20T08:18:24;4.88;;;3.17;;
41677;SDS011;27364;49.026;8.712;2022-08-20T08:20:52;5.93;;;2.63;;
41677;SDS011;27364;49.026;8.712;2022-08-20T08:23:19;4.15;;;2.90;;
41677;SDS011;27364;49.026;8.712;2022-08-20T08:28:12;3.80;;;2.90;;
41677;SDS011;27364;49.026;8.712;2022-08-20T08:30:38;4.90;;;2.97;;
41677;SDS011;27364;49.026;8.712;2022-08-20T08:33:05;5.05;;;3.20;;
41677;SDS011;27364;49.026;8.712;2022-08-20T08:36:08;4.72;;;3.50;;
41677;SDS011;27364;49.026;8.712;2022-08-20T08:38:37;5.22;;;3.08;;
41677;SDS011;27364;49.026;8.712;2022-08-20T08:43:45;6.00;;;2.70;;
41677;SDS011;27364;49.026;8.712;2022-08-20T08:46:14;5.03;;;2.97;;
41677;SDS011;27364;49.026;8.712;2022-08-20T08:48:43;6.13;;;3.00;;
41677;SDS011;27364;49.026;8.712;2022-08-20T08:51:13;4.55;;;3.03;;
41677;SDS011;27364;49.026;8.712;2022-08-20T08:53:41;4.13;;;2.55;;
41677;SDS011;27364;49.026;8.712;2022-08-20T08:56:11;3.80;;;2.63;;
41677;SDS011;27364;49.026;8.712;2022-08-20T08:58:39;4.15;;;2.53;;
41677;SDS011;27364;49.026;8.712;2022-08-20T09:01:10;4.25;;;2.70;;
41677;SDS011;27364;49.026;8.712;2022-08-20T09:03:38;4.65;;;2.33;;
41677;SDS011;27364;49.026;8.712;2022-08-20T09:06:11;4.03;;;2.20;;
41677;SDS011;27364;49.026;8.712;2022-08-20T09:11:11;3.75;;;2.20;;
41677;SDS011;27364;49.026;8.712;2022-08-20T09:13:37;3.83;;;2.40;;
41677;SDS011;27364;49.026;8.712;2022-08-20T09:16:03;5.72;;;2.13;;
41677;SDS011;27364;49.026;8.712;2022-08-20T09:18:29;3.75;;;2.30;;
41677;SDS011;27364;49.026;8.712;2022-08-20T09:20:54;5.10;;;2.05;;
41677;SDS011;27364;49.026;8.712;2022-08-20T09:23:20;4.68;;;2.20;;
41677;SDS011;27364;49.026;8.712;2022-08-20T09:25:46;3.42;;;2.15;;
41677;SDS011;27364;49.026;8.712;2022-08-20T09:28:11;3.22;;;2.17;;
41677;SDS011;27364;49.026;8.712;2022-08-20T09:30:37;3.88;;;2.13;;
41677;SDS011;27364;49.026;8.712;2022-08-20T09:33:03;4.47;;;2.00;;
41677;SDS011;27364;49.026;8.712;2022-08-20T09:35:28;3.67;;;2.20;;
41677;SDS011;27364;49.026;8.712;2022-08-20T09:37:54;3.28;;;1.90;;
41677;SDS011;27364;49.026;8.712;2022-08-20T09:40:20;3.67;;;2.15;;
41677;SDS011;27364;49.026;8.712;2022-08-20T09:42:46;5.63;;;2.45;;
41677;SDS011;27364;49.026;8.712;2022-08-20T09:45:12;2.92;;;1.85;;
41677;SDS011;27364;49.026;8.712;2022-08-20T09:47:39;2.90;;;2.00;;
41677;SDS011;27364;49.026;8.712;2022-08-20T09:50:05;2.97;;;1.63;;
41677;SDS011;27364;49.026;8.712;2022-08-20T09:52:40;3.85;;;1.98;;
41677;SDS011;27364;49.026;8.712;2022-08-20T09:57:50;3.58;;;2.30;;
41677;SDS011;27364;49.026;8.712;2022-08-20T10:00:16;3.85;;;2.00;;
41677;SDS011;27364;49.026;8.712;2022-08-20T10:02:42;3.63;;;2.03;;
41677;SDS011;27364;49.026;8.712;2022-08-20T10:05:08;2.70;;;1.88;;
41677;SDS011;27364;49.026;8.712;2022-08-20T10:07:34;3.00;;;1.90;;
41677;SDS011;27364;49.026;8.712;2022-08-20T10:10:02;3.65;;;1.90;;
41677;SDS011;27364;49.026;8.712;2022-08-20T10:12:29;3.70;;;1.90;;
41677;SDS011;27364;49.026;8.712;2022-08-20T10:14:54;2.97;;;1.88;;
41677;SDS011;27364;49.026;8.712;2022-08-20T10:17:20;2.50;;;1.63;;
41677;SDS011;27364;49.026;8.712;2022-08-20T10:19:46;3.38;;;1.70;;
41677;SDS011;27364;49.026;8.712;2022-08-20T10:22:11;2.60;;;1.67;;
41677;SDS011;27364;49.026;8.712;2022-08-20T10:24:37;2.60;;;1.52;;
41677;SDS011;27364;49.026;8.712;2022-08-20T10:27:03;2.90;;;1.75;;
41677;SDS011;27364;49.026;8.712;2022-08-20T10:29:29;3.88;;;1.70;;
41677;SDS011;27364;49.026;8.712;2022-08-20T10:31:54;2.80;;;1.55;;
41677;SDS011;27364;49.026;8.712;2022-08-20T10:34:23;2.20;;;1.50;;
41677;SDS011;27364;49.026;8.712;2022-08-20T10:36:49;3.17;;;1.88;;
41677;SDS011;27364;49.026;8.712;2022-08-20T10:39:15;3.03;;;1.80;;
41677;SDS011;27364;49.026;8.712;2022-08-20T10:41:41;2.55;;;1.50;;
41677;SDS011;27364;49.026;8.712;2022-08-20T10:44:07;2.78;;;1.60;;
41677;SDS011;27364;49.026;8.712;2022-08-20T10:46:33;2.60;;;1.65;;
41677;SDS011;27364;49.026;8.712;2022-08-20T10:48:58;2.45;;;1.60;;
41677;SDS011;27364;49.026;8.712;2022-08-20T10:51:24;2.72;;;1.65;;
41677;SDS011;27364;49.026;8.712;2022-08-20T10:53:49;2.97;;;1.60;;
41677;SDS011;27364;49.026;8.712;2022-08-20T10:56:15;3.03;;;1.55;;
41677;SDS011;27364;49.026;8.712;2022-08-20T10:58:41;1.88;;;1.30;;
41677;SDS011;27364;49.026;8.712;2022-08-20T11:01:07;2.17;;;1.40;;
41677;SDS011;27364;49.026;8.712;2022-08-20T11:03:33;1.92;;;1.10;;
41677;SDS011;27364;49.026;8.712;2022-08-20T11:05:59;1.60;;;1.10;;
41677;SDS011;27364;49.026;8.712;2022-08-20T11:08:25;2.13;;;1.10;;
41677;SDS011;27364;49.026;8.712;2022-08-20T11:10:50;2.08;;;1.33;;
41677;SDS011;27364;49.026;8.712;2022-08-20T11:13:17;2.25;;;1.20;;
41677;SDS011;27364;49.026;8.712;2022-08-20T11:15:42;2.53;;;1.40;;
41677;SDS011;27364;49.026;8.712;2022-08-20T11:18:09;1.58;;;1.30;;
41677;SDS011;27364;49.026;8.712;2022-08-20T11:20:34;2.45;;;1.40;;
41677;SDS011;27364;49.026;8.712;2022-08-20T11:23:02;2.33;;;1.33;;
41677;SDS011;27364;49.026;8.712;2022-08-20T11:27:54;2.20;;;1.30;;
41677;SDS011;27364;49.026;8.712;2022-08-20T11:30:28;2.75;;;1.50;;
41677;SDS011;27364;49.026;8.712;2022-08-20T11:32:55;1.90;;;1.00;;
41677;SDS011;27364;49.026;8.712;2022-08-20T11:35:22;1.60;;;1.20;;
41677;SDS011;27364;49.026;8.712;2022-08-20T11:37:52;1.80;;;1.20;;
41677;SDS011;27364;49.026;8.712;2022-08-20T11:40:19;2.38;;;1.25;;
41677;SDS011;27364;49.026;8.712;2022-08-20T11:42:45;1.67;;;1.20;;
41677;SDS011;27364;49.026;8.712;2022-08-20T11:45:11;1.63;;;1.10;;
41677;SDS011;27364;49.026;8.712;2022-08-20T11:47:38;2.03;;;1.30;;
41677;SDS011;27364;49.026;8.712;2022-08-20T11:50:22;1.73;;;1.25;;
41677;SDS011;27364;49.026;8.712;2022-08-20T11:52:48;1.92;;;1.30;;
41677;SDS011;27364;49.026;8.712;2022-08-20T11:55:14;2.28;;;1.30;;
41677;SDS011;27364;49.026;8.712;2022-08-20T11:57:42;2.22;;;1.35;;
41677;SDS011;27364;49.026;8.712;2022-08-20T12:00:11;2.30;;;1.45;;
41677;SDS011;27364;49.026;8.712;2022-08-20T12:02:40;1.58;;;1.17;;
41677;SDS011;27364;49.026;8.712;2022-08-20T12:05:06;3.00;;;1.30;;
41677;SDS011;27364;49.026;8.712;2022-08-20T12:07:32;1.88;;;1.38;;
41677;SDS011;27364;49.026;8.712;2022-08-20T12:09:58;3.22;;;1.48;;
41677;SDS011;27364;49.026;8.712;2022-08-20T12:12:24;2.75;;;1.40;;
41677;SDS011;27364;49.026;8.712;2022-08-20T12:14:50;2.63;;;1.30;;
41677;SDS011;27364;49.026;8.712;2022-08-20T12:17:18;2.20;;;1.48;;
41677;SDS011;27364;49.026;8.712;2022-08-20T12:19:49;3.17;;;1.30;;
41677;SDS011;27364;49.026;8.712;2022-08-20T12:22:16;2.83;;;1.20;;
41677;SDS011;27364;49.026;8.712;2022-08-20T12:24:43;2.17;;;1.40;;
41677;SDS011;27364;49.026;8.712;2022-08-20T12:27:09;2.35;;;1.10;;
41677;SDS011;27364;49.026;8.712;2022-08-20T12:32:03;3.20;;;1.30;;
41677;SDS011;27364;49.026;8.712;2022-08-20T12:34:31;2.15;;;1.20;;
41677;SDS011;27364;49.026;8.712;2022-08-20T12:37:02;1.77;;;1.10;;
41677;SDS011;27364;49.026;8.712;2022-08-20T12:39:33;1.63;;;1.05;;
41677;SDS011;27364;49.026;8.712;2022-08-20T12:41:59;2.22;;;1.20;;
41677;SDS011;27364;49.026;8.712;2022-08-20T12:44:27;1.88;;;1.00;;
41677;SDS011;27364;49.026;8.712;2022-08-20T12:47:04;1.23;;;0.93;;
41677;SDS011;27364;49.026;8.712;2022-08-20T12:49:31;1.77;;;0.90;;
41677;SDS011;27364;49.026;8.712;2022-08-20T12:51:56;1.10;;;0.98;;
41677;SDS011;27364;49.026;8.712;2022-08-20T12:54:22;1.77;;;0.90;;
41677;SDS011;27364;49.026;8.712;2022-08-20T12:56:47;1.73;;;1.17;;
41677;SDS011;27364;49.026;8.712;2022-08-20T12:59:13;1.10;;;0.80;;
41677;SDS011;27364;49.026;8.712;2022-08-20T13:01:38;2.65;;;1.10;;
41677;SDS011;27364;49.026;8.712;2022-08-20T13:04:04;1.58;;;0.70;;
41677;SDS011;27364;49.026;8.712;2022-08-20T13:06:29;1.02;;;0.80;;
41677;SDS011;27364;49.026;8.712;2022-08-20T13:08:55;1.40;;;0.82;;
41677;SDS011;27364;49.026;8.712;2022-08-20T13:11:20;3.60;;;0.70;;
41677;SDS011;27364;49.026;8.712;2022-08-20T13:13:46;0.95;;;0.60;;
41677;SDS011;27364;49.026;8.712;2022-08-20T13:16:12;0.80;;;0.75;;
41677;SDS011;27364;49.026;8.712;2022-08-20T13:18:38;0.63;;;0.60;;
41677;SDS011;27364;49.026;8.712;2022-08-20T13:21:04;0.77;;;0.60;;
41677;SDS011;27364;49.026;8.712;2022-08-20T13:23:29;1.25;;;0.90;;
41677;SDS011;27364;49.026;8.712;2022-08-20T13:25:55;1.23;;;0.82;;
41677;SDS011;27364;49.026;8.712;2022-08-20T13:28:20;1.23;;;0.82;;
41677;SDS011;27364;49.026;8.712;2022-08-20T13:30:46;0.70;;;0.60;;
41677;SDS011;27364;49.026;8.712;2022-08-20T13:33:12;1.63;;;0.73;;
41677;SDS011;27364;49.026;8.712;2022-08-20T13:35:37;0.85;;;0.68;;
41677;SDS011;27364;49.026;8.712;2022-08-20T13:38:03;2.42;;;0.68;;
41677;SDS011;27364;49.026;8.712;2022-08-20T13:40:28;0.60;;;0.60;;
41677;SDS011;27364;49.026;8.712;2022-08-20T13:42:54;0.70;;;0.60;;
41677;SDS011;27364;49.026;8.712;2022-08-20T13:45:19;2.03;;;0.88;;
41677;SDS011;27364;49.026;8.712;2022-08-20T13:47:45;0.80;;;0.80;;
41677;SDS011;27364;49.026;8.712;2022-08-20T13:50:16;0.68;;;0.60;;
41677;SDS011;27364;49.026;8.712;2022-08-20T13:52:43;2.08;;;0.88;;
41677;SDS011;27364;49.026;8.712;2022-08-20T13:55:10;1.67;;;1.00;;
41677;SDS011;27364;49.026;8.712;2022-08-20T13:57:39;0.73;;;0.63;;
41677;SDS011;27364;49.026;8.712;2022-08-20T14:00:06;0.73;;;0.70;;
41677;SDS011;27364;49.026;8.712;2022-08-20T14:02:37;3.00;;;0.88;;
41677;SDS011;27364;49.026;8.712;2022-08-20T14:05:03;1.95;;;1.00;;
41677;SDS011;27364;49.026;8.712;2022-08-20T14:07:29;1.67;;;0.80;;
41677;SDS011;27364;49.026;8.712;2022-08-20T14:10:15;2.35;;;1.02;;
41677;SDS011;27364;49.026;8.712;2022-08-20T14:12:43;1.92;;;1.05;;
41677;SDS011;27364;49.026;8.712;2022-08-20T14:15:09;1.83;;;0.80;;
41677;SDS011;27364;49.026;8.712;2022-08-20T14:17:36;0.98;;;0.77;;
41677;SDS011;27364;49.026;8.712;2022-08-20T14:20:14;1.45;;;1.00;;
41677;SDS011;27364;49.026;8.712;2022-08-20T14:22:41;2.97;;;0.95;;
41677;SDS011;27364;49.026;8.712;2022-08-20T14:25:08;1.48;;;1.00;;
41677;SDS011;27364;49.026;8.712;2022-08-20T14:27:34;1.42;;;1.00;;
41677;SDS011;27364;49.026;8.712;2022-08-20T14:30:03;2.60;;;1.10;;
41677;SDS011;27364;49.026;8.712;2022-08-20T14:32:30;2.05;;;1.05;;
41677;SDS011;27364;49.026;8.712;2022-08-20T14:34:56;2.20;;;1.30;;
41677;SDS011;27364;49.026;8.712;2022-08-20T14:37:33;1.58;;;1.05;;
41677;SDS011;27364;49.026;8.712;2022-08-20T14:40:02;2.15;;;1.00;;
41677;SDS011;27364;49.026;8.712;2022-08-20T14:42:29;1.33;;;0.90;;
41677;SDS011;27364;49.026;8.712;2022-08-20T14:44:55;1.85;;;1.10;;
41677;SDS011;27364;49.026;8.712;2022-08-20T14:52:16;1.52;;;0.90;;
41677;SDS011;27364;49.026;8.712;2022-08-20T14:54:44;2.72;;;1.10;;
41677;SDS011;27364;49.026;8.712;2022-08-20T14:57:11;2.33;;;1.17;;
41677;SDS011;27364;49.026;8.712;2022-08-20T14:59:37;1.65;;;0.98;;
41677;SDS011;27364;49.026;8.712;2022-08-20T15:02:04;1.73;;;1.10;;
41677;SDS011;27364;49.026;8.712;2022-08-20T15:06:56;2.28;;;1.17;;
41677;SDS011;27364;49.026;8.712;2022-08-20T15:09:22;1.65;;;1.00;;
41677;SDS011;27364;49.026;8.712;2022-08-20T15:11:48;1.73;;;0.90;;
41677;SDS011;27364;49.026;8.712;2022-08-20T15:14:13;2.08;;;1.10;;
41677;SDS011;27364;49.026;8.712;2022-08-20T15:16:39;1.95;;;1.00;;
41677;SDS011;27364;49.026;8.712;2022-08-20T15:19:04;2.88;;;1.23;;
41677;SDS011;27364;49.026;8.712;2022-08-20T15:21:30;2.92;;;1.10;;
41677;SDS011;27364;49.026;8.712;2022-08-20T15:23:55;2.10;;;1.30;;